sensor_id;sensor_type;location;lat;lon;timestamp;P1;durP1;ratioP1;P2;durP2;ratioP2
2622;SDS011;1321;48.690;9.022;2022-10-01T00:02:06;5.27;;;4.97;;
2622;SDS011;1321;48.690;9.022;2022-10-01T00:04:35;5.10;;;4.80;;
2622;SDS011;1321;48.690;9.022;2022-10-01T00:07:05;5.57;;;5.03;;
2622;SDS011;1321;48.690;9.022;2022-10-01T00:09:36;4.13;;;3.93;;
2622;SDS011;1321;48.690;9.022;2022-10-01T00:12:06;5.17;;;4.87;;
2622;SDS011;1321;48.690;9.022;2022-10-01T00:14:35;4.67;;;4.37;;
2622;SDS011;1321;48.690;9.022;2022-10-01T00:17:04;5.30;;;4.80;;
2622;SDS011;1321;48.690;9.022;2022-10-01T00:19:32;5.80;;;5.30;;
2622;SDS011;1321;48.690;9.022;2022-10-01T00:22:01;4.70;;;4.50;;
2622;SDS011;1321;48.690;9.022;2022-10-01T00:24:29;5.80;;;5.50;;
2622;SDS011;1321;48.690;9.022;2022-10-01T00:26:57;6.00;;;5.60;;
2622;SDS011;1321;48.690;9.022;2022-10-01T00:29:27;5.33;;;5.03;;
2622;SDS011;1321;48.690;9.022;2022-10-01T00:31:55;5.07;;;4.83;;
2622;SDS011;1321;48.690;9.022;2022-10-01T00:34:23;5.63;;;5.23;;
2622;SDS011;1321;48.690;9.022;2022-10-01T00:36:53;5.50;;;5.20;;
2622;SDS011;1321;48.690;9.022;2022-10-01T00:39:21;5.37;;;5.07;;
2622;SDS011;1321;48.690;9.022;2022-10-01T00:41:49;5.50;;;5.20;;
2622;SDS011;1321;48.690;9.022;2022-10-01T00:44:32;7.03;;;5.53;;
2622;SDS011;1321;48.690;9.022;2022-10-01T00:47:04;5.60;;;5.10;;
2622;SDS011;1321;48.690;9.022;2022-10-01T00:49:39;5.30;;;5.00;;
2622;SDS011;1321;48.690;9.022;2022-10-01T00:52:10;5.33;;;4.83;;
2622;SDS011;1321;48.690;9.022;2022-10-01T00:54:43;5.73;;;5.33;;
2622;SDS011;1321;48.690;9.022;2022-10-01T00:57:16;5.47;;;5.00;;
2622;SDS011;1321;48.690;9.022;2022-10-01T00:59:49;5.13;;;4.73;;
2622;SDS011;1321;48.690;9.022;2022-10-01T01:02:20;5.40;;;5.00;;
2622;SDS011;1321;48.690;9.022;2022-10-01T01:04:49;6.27;;;5.77;;
2622;SDS011;1321;48.690;9.022;2022-10-01T01:07:17;4.90;;;4.60;;
2622;SDS011;1321;48.690;9.022;2022-10-01T01:09:47;5.43;;;5.00;;
2622;SDS011;1321;48.690;9.022;2022-10-01T01:12:20;4.57;;;4.30;;
2622;SDS011;1321;48.690;9.022;2022-10-01T01:15:09;4.37;;;4.13;;
2622;SDS011;1321;48.690;9.022;2022-10-01T01:17:43;5.17;;;4.83;;
2622;SDS011;1321;48.690;9.022;2022-10-01T01:20:25;5.17;;;4.87;;
2622;SDS011;1321;48.690;9.022;2022-10-01T01:23:09;4.87;;;4.47;;
2622;SDS011;1321;48.690;9.022;2022-10-01T01:26:04;5.23;;;4.77;;
2622;SDS011;1321;48.690;9.022;2022-10-01T01:28:43;5.07;;;4.77;;
2622;SDS011;1321;48.690;9.022;2022-10-01T01:31:14;5.07;;;4.70;;
2622;SDS011;1321;48.690;9.022;2022-10-01T01:33:46;4.90;;;4.43;;
2622;SDS011;1321;48.690;9.022;2022-10-01T01:36:18;5.80;;;5.30;;
2622;SDS011;1321;48.690;9.022;2022-10-01T01:39:01;5.23;;;4.90;;
2622;SDS011;1321;48.690;9.022;2022-10-01T01:41:33;4.83;;;4.43;;
2622;SDS011;1321;48.690;9.022;2022-10-01T01:44:06;5.53;;;5.10;;
2622;SDS011;1321;48.690;9.022;2022-10-01T01:46:39;4.97;;;4.40;;
2622;SDS011;1321;48.690;9.022;2022-10-01T01:49:10;4.63;;;4.40;;
2622;SDS011;1321;48.690;9.022;2022-10-01T01:51:44;4.87;;;4.57;;
2622;SDS011;1321;48.690;9.022;2022-10-01T01:54:17;5.37;;;4.97;;
2622;SDS011;1321;48.690;9.022;2022-10-01T01:56:46;5.03;;;4.53;;
2622;SDS011;1321;48.690;9.022;2022-10-01T01:59:17;4.50;;;4.27;;
2622;SDS011;1321;48.690;9.022;2022-10-01T02:01:45;5.30;;;4.90;;
2622;SDS011;1321;48.690;9.022;2022-10-01T02:04:17;4.97;;;4.67;;
2622;SDS011;1321;48.690;9.022;2022-10-01T02:06:52;4.83;;;4.53;;
2622;SDS011;1321;48.690;9.022;2022-10-01T02:09:45;5.50;;;5.10;;
2622;SDS011;1321;48.690;9.022;2022-10-01T02:12:21;4.80;;;4.50;;
2622;SDS011;1321;48.690;9.022;2022-10-01T02:15:02;5.13;;;4.73;;
2622;SDS011;1321;48.690;9.022;2022-10-01T02:17:38;4.10;;;3.90;;
2622;SDS011;1321;48.690;9.022;2022-10-01T02:20:16;5.23;;;4.90;;
2622;SDS011;1321;48.690;9.022;2022-10-01T02:22:51;4.20;;;3.90;;
2622;SDS011;1321;48.690;9.022;2022-10-01T02:25:24;4.27;;;4.00;;
2622;SDS011;1321;48.690;9.022;2022-10-01T02:27:56;4.80;;;4.17;;
2622;SDS011;1321;48.690;9.022;2022-10-01T02:30:30;4.40;;;4.10;;
2622;SDS011;1321;48.690;9.022;2022-10-01T02:33:00;4.20;;;4.00;;
2622;SDS011;1321;48.690;9.022;2022-10-01T02:35:30;4.00;;;3.70;;
2622;SDS011;1321;48.690;9.022;2022-10-01T02:38:01;3.77;;;3.57;;
2622;SDS011;1321;48.690;9.022;2022-10-01T02:40:33;3.93;;;3.67;;
2622;SDS011;1321;48.690;9.022;2022-10-01T02:43:05;3.97;;;3.67;;
2622;SDS011;1321;48.690;9.022;2022-10-01T02:45:38;4.30;;;3.90;;
2622;SDS011;1321;48.690;9.022;2022-10-01T02:48:09;3.87;;;3.57;;
2622;SDS011;1321;48.690;9.022;2022-10-01T02:50:41;4.90;;;4.60;;
2622;SDS011;1321;48.690;9.022;2022-10-01T02:53:15;3.67;;;3.37;;
2622;SDS011;1321;48.690;9.022;2022-10-01T02:55:46;4.03;;;3.83;;
2622;SDS011;1321;48.690;9.022;2022-10-01T02:58:17;4.23;;;3.83;;
2622;SDS011;1321;48.690;9.022;2022-10-01T03:00:46;3.57;;;3.33;;
2622;SDS011;1321;48.690;9.022;2022-10-01T03:03:14;3.47;;;3.23;;
2622;SDS011;1321;48.690;9.022;2022-10-01T03:05:42;3.30;;;3.10;;
2622;SDS011;1321;48.690;9.022;2022-10-01T03:08:10;3.77;;;3.57;;
2622;SDS011;1321;48.690;9.022;2022-10-01T03:10:38;3.47;;;3.37;;
2622;SDS011;1321;48.690;9.022;2022-10-01T03:13:12;3.27;;;3.07;;
2622;SDS011;1321;48.690;9.022;2022-10-01T03:15:40;3.33;;;3.03;;
2622;SDS011;1321;48.690;9.022;2022-10-01T03:18:09;2.53;;;2.43;;
2622;SDS011;1321;48.690;9.022;2022-10-01T03:20:37;3.50;;;3.30;;
2622;SDS011;1321;48.690;9.022;2022-10-01T03:23:05;4.47;;;4.27;;
2622;SDS011;1321;48.690;9.022;2022-10-01T03:25:33;3.17;;;2.97;;
2622;SDS011;1321;48.690;9.022;2022-10-01T03:28:01;3.40;;;3.17;;
2622;SDS011;1321;48.690;9.022;2022-10-01T03:30:29;3.50;;;3.20;;
2622;SDS011;1321;48.690;9.022;2022-10-01T03:32:59;3.20;;;3.00;;
2622;SDS011;1321;48.690;9.022;2022-10-01T03:35:28;2.77;;;2.67;;
2622;SDS011;1321;48.690;9.022;2022-10-01T03:37:57;2.80;;;2.63;;
2622;SDS011;1321;48.690;9.022;2022-10-01T03:40:25;3.07;;;2.87;;
2622;SDS011;1321;48.690;9.022;2022-10-01T03:42:54;3.67;;;3.37;;
2622;SDS011;1321;48.690;9.022;2022-10-01T03:45:22;2.70;;;2.60;;
2622;SDS011;1321;48.690;9.022;2022-10-01T03:47:50;3.57;;;3.30;;
2622;SDS011;1321;48.690;9.022;2022-10-01T03:50:19;5.60;;;3.40;;
2622;SDS011;1321;48.690;9.022;2022-10-01T03:52:48;3.57;;;3.37;;
2622;SDS011;1321;48.690;9.022;2022-10-01T03:55:17;3.70;;;3.50;;
2622;SDS011;1321;48.690;9.022;2022-10-01T03:57:45;3.73;;;3.40;;
2622;SDS011;1321;48.690;9.022;2022-10-01T04:00:14;3.77;;;3.47;;
2622;SDS011;1321;48.690;9.022;2022-10-01T04:02:43;3.27;;;3.07;;
2622;SDS011;1321;48.690;9.022;2022-10-01T04:05:11;3.07;;;2.90;;
2622;SDS011;1321;48.690;9.022;2022-10-01T04:07:40;2.73;;;2.60;;
2622;SDS011;1321;48.690;9.022;2022-10-01T04:10:10;3.33;;;2.73;;
2622;SDS011;1321;48.690;9.022;2022-10-01T04:12:38;3.37;;;3.17;;
2622;SDS011;1321;48.690;9.022;2022-10-01T04:15:07;3.30;;;3.10;;
2622;SDS011;1321;48.690;9.022;2022-10-01T04:17:35;2.43;;;2.33;;
2622;SDS011;1321;48.690;9.022;2022-10-01T04:20:09;3.27;;;2.97;;
2622;SDS011;1321;48.690;9.022;2022-10-01T04:22:37;3.23;;;3.03;;
2622;SDS011;1321;48.690;9.022;2022-10-01T04:25:08;2.60;;;2.47;;
2622;SDS011;1321;48.690;9.022;2022-10-01T04:27:38;2.80;;;2.60;;
2622;SDS011;1321;48.690;9.022;2022-10-01T04:30:07;3.03;;;2.73;;
2622;SDS011;1321;48.690;9.022;2022-10-01T04:32:36;2.23;;;2.13;;
2622;SDS011;1321;48.690;9.022;2022-10-01T04:35:05;2.27;;;2.17;;
2622;SDS011;1321;48.690;9.022;2022-10-01T04:37:36;2.60;;;2.10;;
2622;SDS011;1321;48.690;9.022;2022-10-01T04:40:05;2.50;;;2.40;;
2622;SDS011;1321;48.690;9.022;2022-10-01T04:42:38;2.10;;;2.00;;
2622;SDS011;1321;48.690;9.022;2022-10-01T04:45:09;2.93;;;2.80;;
2622;SDS011;1321;48.690;9.022;2022-10-01T04:47:45;3.00;;;2.20;;
2622;SDS011;1321;48.690;9.022;2022-10-01T04:50:14;2.13;;;2.03;;
2622;SDS011;1321;48.690;9.022;2022-10-01T04:52:43;2.50;;;2.40;;
2622;SDS011;1321;48.690;9.022;2022-10-01T04:55:12;2.37;;;2.17;;
2622;SDS011;1321;48.690;9.022;2022-10-01T04:57:42;3.00;;;2.20;;
2622;SDS011;1321;48.690;9.022;2022-10-01T05:00:11;2.30;;;2.20;;
2622;SDS011;1321;48.690;9.022;2022-10-01T05:02:43;2.30;;;2.10;;
2622;SDS011;1321;48.690;9.022;2022-10-01T05:05:11;2.63;;;2.53;;
2622;SDS011;1321;48.690;9.022;2022-10-01T05:07:40;2.40;;;2.30;;
2622;SDS011;1321;48.690;9.022;2022-10-01T05:10:09;2.20;;;2.00;;
2622;SDS011;1321;48.690;9.022;2022-10-01T05:12:40;2.60;;;2.50;;
2622;SDS011;1321;48.690;9.022;2022-10-01T05:15:09;1.90;;;1.80;;
2622;SDS011;1321;48.690;9.022;2022-10-01T05:17:38;2.20;;;2.10;;
2622;SDS011;1321;48.690;9.022;2022-10-01T05:20:14;2.20;;;2.10;;
2622;SDS011;1321;48.690;9.022;2022-10-01T05:22:44;2.30;;;2.20;;
2622;SDS011;1321;48.690;9.022;2022-10-01T05:25:14;2.40;;;2.20;;
2622;SDS011;1321;48.690;9.022;2022-10-01T05:27:42;2.03;;;1.93;;
2622;SDS011;1321;48.690;9.022;2022-10-01T05:30:13;2.13;;;2.03;;
2622;SDS011;1321;48.690;9.022;2022-10-01T05:32:52;1.90;;;1.80;;
2622;SDS011;1321;48.690;9.022;2022-10-01T05:35:21;2.23;;;2.13;;
2622;SDS011;1321;48.690;9.022;2022-10-01T05:37:53;2.23;;;2.13;;
2622;SDS011;1321;48.690;9.022;2022-10-01T05:40:22;2.13;;;2.03;;
2622;SDS011;1321;48.690;9.022;2022-10-01T05:42:53;1.97;;;1.87;;
2622;SDS011;1321;48.690;9.022;2022-10-01T05:45:22;2.60;;;2.43;;
2622;SDS011;1321;48.690;9.022;2022-10-01T05:47:54;2.40;;;2.20;;
2622;SDS011;1321;48.690;9.022;2022-10-01T05:50:24;2.67;;;2.47;;
2622;SDS011;1321;48.690;9.022;2022-10-01T05:52:52;2.40;;;2.20;;
2622;SDS011;1321;48.690;9.022;2022-10-01T05:55:21;2.53;;;2.40;;
2622;SDS011;1321;48.690;9.022;2022-10-01T05:57:53;2.20;;;2.00;;
2622;SDS011;1321;48.690;9.022;2022-10-01T06:00:26;2.73;;;2.10;;
2622;SDS011;1321;48.690;9.022;2022-10-01T06:02:56;2.57;;;2.10;;
2622;SDS011;1321;48.690;9.022;2022-10-01T06:05:25;2.33;;;2.23;;
2622;SDS011;1321;48.690;9.022;2022-10-01T06:07:54;2.10;;;1.90;;
2622;SDS011;1321;48.690;9.022;2022-10-01T06:10:22;1.80;;;1.70;;
2622;SDS011;1321;48.690;9.022;2022-10-01T06:12:56;1.80;;;1.70;;
2622;SDS011;1321;48.690;9.022;2022-10-01T06:15:26;1.97;;;1.87;;
2622;SDS011;1321;48.690;9.022;2022-10-01T06:17:55;2.20;;;2.10;;
2622;SDS011;1321;48.690;9.022;2022-10-01T06:20:23;2.67;;;2.47;;
2622;SDS011;1321;48.690;9.022;2022-10-01T06:22:52;2.27;;;2.17;;
2622;SDS011;1321;48.690;9.022;2022-10-01T06:25:22;1.90;;;1.80;;
2622;SDS011;1321;48.690;9.022;2022-10-01T06:27:51;2.10;;;2.00;;
2622;SDS011;1321;48.690;9.022;2022-10-01T06:30:21;2.17;;;2.00;;
2622;SDS011;1321;48.690;9.022;2022-10-01T06:32:50;2.60;;;2.17;;
2622;SDS011;1321;48.690;9.022;2022-10-01T06:35:18;2.63;;;2.17;;
2622;SDS011;1321;48.690;9.022;2022-10-01T06:37:46;2.40;;;2.20;;
2622;SDS011;1321;48.690;9.022;2022-10-01T06:40:15;2.00;;;1.90;;
2622;SDS011;1321;48.690;9.022;2022-10-01T06:42:45;2.53;;;2.43;;
2622;SDS011;1321;48.690;9.022;2022-10-01T06:45:14;2.20;;;2.10;;
2622;SDS011;1321;48.690;9.022;2022-10-01T06:47:43;2.33;;;2.23;;
2622;SDS011;1321;48.690;9.022;2022-10-01T06:50:12;2.10;;;2.00;;
2622;SDS011;1321;48.690;9.022;2022-10-01T06:52:40;2.37;;;2.17;;
2622;SDS011;1321;48.690;9.022;2022-10-01T06:55:17;1.80;;;1.70;;
2622;SDS011;1321;48.690;9.022;2022-10-01T06:57:46;1.93;;;1.90;;
2622;SDS011;1321;48.690;9.022;2022-10-01T07:00:15;2.73;;;2.20;;
2622;SDS011;1321;48.690;9.022;2022-10-01T07:02:43;1.83;;;1.73;;
2622;SDS011;1321;48.690;9.022;2022-10-01T07:05:13;2.17;;;2.07;;
2622;SDS011;1321;48.690;9.022;2022-10-01T07:07:42;2.67;;;1.87;;
2622;SDS011;1321;48.690;9.022;2022-10-01T07:10:11;2.37;;;2.27;;
2622;SDS011;1321;48.690;9.022;2022-10-01T07:12:39;2.40;;;2.20;;
2622;SDS011;1321;48.690;9.022;2022-10-01T07:15:07;1.93;;;1.70;;
2622;SDS011;1321;48.690;9.022;2022-10-01T07:17:41;1.50;;;1.47;;
2622;SDS011;1321;48.690;9.022;2022-10-01T07:20:10;3.43;;;1.80;;
2622;SDS011;1321;48.690;9.022;2022-10-01T07:22:41;1.90;;;1.80;;
2622;SDS011;1321;48.690;9.022;2022-10-01T07:25:09;1.83;;;1.73;;
2622;SDS011;1321;48.690;9.022;2022-10-01T07:27:38;1.70;;;1.70;;
2622;SDS011;1321;48.690;9.022;2022-10-01T07:30:06;1.80;;;1.70;;
2622;SDS011;1321;48.690;9.022;2022-10-01T07:32:35;2.07;;;1.97;;
2622;SDS011;1321;48.690;9.022;2022-10-01T07:35:04;2.20;;;2.10;;
2622;SDS011;1321;48.690;9.022;2022-10-01T07:37:34;2.60;;;2.43;;
2622;SDS011;1321;48.690;9.022;2022-10-01T07:40:04;2.80;;;1.77;;
2622;SDS011;1321;48.690;9.022;2022-10-01T07:42:34;2.60;;;2.50;;
2622;SDS011;1321;48.690;9.022;2022-10-01T07:45:03;2.13;;;2.03;;
2622;SDS011;1321;48.690;9.022;2022-10-01T07:47:32;2.23;;;2.10;;
2622;SDS011;1321;48.690;9.022;2022-10-01T07:50:01;2.50;;;2.37;;
2622;SDS011;1321;48.690;9.022;2022-10-01T07:52:30;2.23;;;2.13;;
2622;SDS011;1321;48.690;9.022;2022-10-01T07:54:58;2.50;;;2.30;;
2622;SDS011;1321;48.690;9.022;2022-10-01T07:57:27;2.60;;;2.50;;
2622;SDS011;1321;48.690;9.022;2022-10-01T07:59:56;3.50;;;2.20;;
2622;SDS011;1321;48.690;9.022;2022-10-01T08:02:24;2.20;;;2.10;;
2622;SDS011;1321;48.690;9.022;2022-10-01T08:04:53;2.50;;;2.30;;
2622;SDS011;1321;48.690;9.022;2022-10-01T08:07:38;2.17;;;2.07;;
2622;SDS011;1321;48.690;9.022;2022-10-01T08:10:06;2.60;;;2.50;;
2622;SDS011;1321;48.690;9.022;2022-10-01T08:12:36;2.90;;;2.70;;
2622;SDS011;1321;48.690;9.022;2022-10-01T08:15:05;2.63;;;2.53;;
2622;SDS011;1321;48.690;9.022;2022-10-01T08:17:35;2.83;;;2.63;;
2622;SDS011;1321;48.690;9.022;2022-10-01T08:20:04;3.00;;;2.90;;
2622;SDS011;1321;48.690;9.022;2022-10-01T08:22:34;2.93;;;2.83;;
2622;SDS011;1321;48.690;9.022;2022-10-01T08:25:07;3.27;;;3.17;;
2622;SDS011;1321;48.690;9.022;2022-10-01T08:27:38;3.60;;;3.40;;
2622;SDS011;1321;48.690;9.022;2022-10-01T08:30:06;3.83;;;3.53;;
2622;SDS011;1321;48.690;9.022;2022-10-01T08:32:35;3.70;;;3.40;;
2622;SDS011;1321;48.690;9.022;2022-10-01T08:35:04;4.10;;;4.00;;
2622;SDS011;1321;48.690;9.022;2022-10-01T08:37:32;3.90;;;3.70;;
2622;SDS011;1321;48.690;9.022;2022-10-01T08:40:00;4.90;;;4.60;;
2622;SDS011;1321;48.690;9.022;2022-10-01T08:42:35;4.30;;;4.10;;
2622;SDS011;1321;48.690;9.022;2022-10-01T08:45:22;4.63;;;4.27;;
2622;SDS011;1321;48.690;9.022;2022-10-01T08:47:58;4.80;;;4.60;;
2622;SDS011;1321;48.690;9.022;2022-10-01T08:50:31;4.70;;;4.50;;
2622;SDS011;1321;48.690;9.022;2022-10-01T08:53:10;4.50;;;4.40;;
2622;SDS011;1321;48.690;9.022;2022-10-01T08:55:42;4.70;;;4.60;;
2622;SDS011;1321;48.690;9.022;2022-10-01T08:58:14;5.20;;;5.10;;
2622;SDS011;1321;48.690;9.022;2022-10-01T09:00:49;5.13;;;5.03;;
2622;SDS011;1321;48.690;9.022;2022-10-01T09:03:18;5.20;;;4.80;;
2622;SDS011;1321;48.690;9.022;2022-10-01T09:05:49;6.17;;;5.90;;
2622;SDS011;1321;48.690;9.022;2022-10-01T09:08:26;5.77;;;5.57;;
2622;SDS011;1321;48.690;9.022;2022-10-01T09:11:13;5.50;;;5.40;;
2622;SDS011;1321;48.690;9.022;2022-10-01T09:13:58;5.67;;;5.50;;
2622;SDS011;1321;48.690;9.022;2022-10-01T09:16:41;6.20;;;6.10;;
2622;SDS011;1321;48.690;9.022;2022-10-01T09:19:20;6.27;;;6.17;;
2622;SDS011;1321;48.690;9.022;2022-10-01T09:22:02;7.90;;;7.60;;
2622;SDS011;1321;48.690;9.022;2022-10-01T09:24:40;6.30;;;6.10;;
2622;SDS011;1321;48.690;9.022;2022-10-01T09:27:12;6.13;;;6.03;;
2622;SDS011;1321;48.690;9.022;2022-10-01T09:29:45;6.60;;;6.50;;
2622;SDS011;1321;48.690;9.022;2022-10-01T09:32:18;6.50;;;6.40;;
2622;SDS011;1321;48.690;9.022;2022-10-01T09:34:51;6.80;;;6.70;;
2622;SDS011;1321;48.690;9.022;2022-10-01T09:37:27;6.90;;;6.70;;
2622;SDS011;1321;48.690;9.022;2022-10-01T09:40:04;7.17;;;7.00;;
2622;SDS011;1321;48.690;9.022;2022-10-01T09:42:42;7.20;;;7.10;;
2622;SDS011;1321;48.690;9.022;2022-10-01T09:45:14;7.70;;;7.50;;
2622;SDS011;1321;48.690;9.022;2022-10-01T09:47:44;8.27;;;8.07;;
2622;SDS011;1321;48.690;9.022;2022-10-01T09:50:16;7.77;;;7.57;;
2622;SDS011;1321;48.690;9.022;2022-10-01T09:52:51;7.40;;;7.30;;
2622;SDS011;1321;48.690;9.022;2022-10-01T09:55:24;8.30;;;8.00;;
2622;SDS011;1321;48.690;9.022;2022-10-01T09:57:57;8.57;;;8.37;;
2622;SDS011;1321;48.690;9.022;2022-10-01T10:00:29;8.00;;;7.80;;
2622;SDS011;1321;48.690;9.022;2022-10-01T10:02:59;8.57;;;8.37;;
2622;SDS011;1321;48.690;9.022;2022-10-01T10:05:28;8.03;;;7.93;;
2622;SDS011;1321;48.690;9.022;2022-10-01T10:08:09;8.23;;;8.03;;
2622;SDS011;1321;48.690;9.022;2022-10-01T10:10:39;8.30;;;8.20;;
2622;SDS011;1321;48.690;9.022;2022-10-01T10:13:18;8.53;;;8.43;;
2622;SDS011;1321;48.690;9.022;2022-10-01T10:15:58;9.27;;;9.07;;
2622;SDS011;1321;48.690;9.022;2022-10-01T10:18:33;8.67;;;8.50;;
2622;SDS011;1321;48.690;9.022;2022-10-01T10:21:04;8.70;;;8.60;;
2622;SDS011;1321;48.690;9.022;2022-10-01T10:23:44;8.30;;;8.20;;
2622;SDS011;1321;48.690;9.022;2022-10-01T10:26:16;7.70;;;7.60;;
2622;SDS011;1321;48.690;9.022;2022-10-01T10:28:47;7.60;;;7.40;;
2622;SDS011;1321;48.690;9.022;2022-10-01T10:31:18;8.00;;;7.90;;
2622;SDS011;1321;48.690;9.022;2022-10-01T10:33:50;8.17;;;7.97;;
2622;SDS011;1321;48.690;9.022;2022-10-01T10:36:21;9.30;;;9.10;;
2622;SDS011;1321;48.690;9.022;2022-10-01T10:38:54;9.07;;;8.87;;
2622;SDS011;1321;48.690;9.022;2022-10-01T10:41:24;9.50;;;9.20;;
2622;SDS011;1321;48.690;9.022;2022-10-01T10:43:54;9.47;;;9.17;;
2622;SDS011;1321;48.690;9.022;2022-10-01T10:46:27;9.27;;;9.17;;
2622;SDS011;1321;48.690;9.022;2022-10-01T10:49:04;9.90;;;9.70;;
2622;SDS011;1321;48.690;9.022;2022-10-01T10:51:42;9.57;;;9.37;;
2622;SDS011;1321;48.690;9.022;2022-10-01T10:54:17;9.60;;;9.40;;
2622;SDS011;1321;48.690;9.022;2022-10-01T10:56:52;9.80;;;9.63;;
2622;SDS011;1321;48.690;9.022;2022-10-01T10:59:25;10.07;;;9.87;;
2622;SDS011;1321;48.690;9.022;2022-10-01T11:01:54;10.07;;;9.67;;
2622;SDS011;1321;48.690;9.022;2022-10-01T11:04:25;10.00;;;9.90;;
2622;SDS011;1321;48.690;9.022;2022-10-01T11:06:58;9.57;;;9.40;;
2622;SDS011;1321;48.690;9.022;2022-10-01T11:09:30;10.30;;;10.10;;
2622;SDS011;1321;48.690;9.022;2022-10-01T11:12:11;10.20;;;10.00;;
2622;SDS011;1321;48.690;9.022;2022-10-01T11:14:49;10.40;;;10.20;;
2622;SDS011;1321;48.690;9.022;2022-10-01T11:17:31;9.80;;;9.60;;
2622;SDS011;1321;48.690;9.022;2022-10-01T11:20:18;9.50;;;9.30;;
2622;SDS011;1321;48.690;9.022;2022-10-01T11:23:03;9.70;;;9.50;;
2622;SDS011;1321;48.690;9.022;2022-10-01T11:25:50;9.50;;;9.40;;
2622;SDS011;1321;48.690;9.022;2022-10-01T11:28:32;9.90;;;9.70;;
2622;SDS011;1321;48.690;9.022;2022-10-01T11:31:13;9.67;;;9.47;;
2622;SDS011;1321;48.690;9.022;2022-10-01T11:33:56;10.17;;;9.97;;
2622;SDS011;1321;48.690;9.022;2022-10-01T11:36:34;10.20;;;10.00;;
2622;SDS011;1321;48.690;9.022;2022-10-01T11:39:09;9.53;;;9.33;;
2622;SDS011;1321;48.690;9.022;2022-10-01T11:41:42;9.87;;;9.67;;
2622;SDS011;1321;48.690;9.022;2022-10-01T11:44:13;9.93;;;9.73;;
2622;SDS011;1321;48.690;9.022;2022-10-01T11:46:52;9.63;;;9.53;;
2622;SDS011;1321;48.690;9.022;2022-10-01T11:52:25;9.80;;;9.60;;
2622;SDS011;1321;48.690;9.022;2022-10-01T11:55:03;10.60;;;10.40;;
2622;SDS011;1321;48.690;9.022;2022-10-01T11:58:13;10.73;;;10.53;;
2622;SDS011;1321;48.690;9.022;2022-10-01T12:01:02;10.73;;;10.53;;
2622;SDS011;1321;48.690;9.022;2022-10-01T12:06:30;10.97;;;10.67;;
2622;SDS011;1321;48.690;9.022;2022-10-01T12:09:05;10.53;;;10.33;;
2622;SDS011;1321;48.690;9.022;2022-10-01T12:11:41;11.40;;;11.20;;
2622;SDS011;1321;48.690;9.022;2022-10-01T12:14:15;10.90;;;10.60;;
2622;SDS011;1321;48.690;9.022;2022-10-01T12:16:47;11.10;;;10.90;;
2622;SDS011;1321;48.690;9.022;2022-10-01T12:19:20;10.10;;;10.00;;
2622;SDS011;1321;48.690;9.022;2022-10-01T12:21:52;10.70;;;10.40;;
2622;SDS011;1321;48.690;9.022;2022-10-01T12:24:26;10.10;;;9.90;;
2622;SDS011;1321;48.690;9.022;2022-10-01T12:27:00;10.63;;;10.43;;
2622;SDS011;1321;48.690;9.022;2022-10-01T12:29:38;11.33;;;10.93;;
2622;SDS011;1321;48.690;9.022;2022-10-01T12:32:15;11.07;;;10.87;;
2622;SDS011;1321;48.690;9.022;2022-10-01T12:34:51;10.73;;;10.53;;
2622;SDS011;1321;48.690;9.022;2022-10-01T12:37:31;10.87;;;10.67;;
2622;SDS011;1321;48.690;9.022;2022-10-01T12:40:21;10.30;;;10.10;;
2622;SDS011;1321;48.690;9.022;2022-10-01T12:45:52;11.23;;;11.00;;
2622;SDS011;1321;48.690;9.022;2022-10-01T12:48:29;11.23;;;11.03;;
2622;SDS011;1321;48.690;9.022;2022-10-01T12:51:12;10.50;;;10.30;;
2622;SDS011;1321;48.690;9.022;2022-10-01T12:54:00;11.00;;;10.80;;
2622;SDS011;1321;48.690;9.022;2022-10-01T12:56:39;11.00;;;10.80;;
2622;SDS011;1321;48.690;9.022;2022-10-01T12:59:27;11.17;;;10.97;;
2622;SDS011;1321;48.690;9.022;2022-10-01T13:02:14;11.30;;;11.10;;
2622;SDS011;1321;48.690;9.022;2022-10-01T13:07:51;12.27;;;11.97;;
2622;SDS011;1321;48.690;9.022;2022-10-01T13:10:46;11.80;;;11.60;;
2622;SDS011;1321;48.690;9.022;2022-10-01T13:13:25;11.80;;;11.60;;
2622;SDS011;1321;48.690;9.022;2022-10-01T13:15:59;12.30;;;12.10;;
2622;SDS011;1321;48.690;9.022;2022-10-01T13:18:37;12.60;;;12.20;;
2622;SDS011;1321;48.690;9.022;2022-10-01T13:21:19;11.87;;;11.60;;
2622;SDS011;1321;48.690;9.022;2022-10-01T13:23:57;11.87;;;11.67;;
2622;SDS011;1321;48.690;9.022;2022-10-01T13:26:33;11.50;;;11.30;;
2622;SDS011;1321;48.690;9.022;2022-10-01T13:29:12;11.80;;;11.60;;
2622;SDS011;1321;48.690;9.022;2022-10-01T13:31:53;12.10;;;11.90;;
2622;SDS011;1321;48.690;9.022;2022-10-01T13:34:24;11.70;;;11.50;;
2622;SDS011;1321;48.690;9.022;2022-10-01T13:37:14;12.50;;;12.30;;
2622;SDS011;1321;48.690;9.022;2022-10-01T13:39:43;12.30;;;12.10;;
2622;SDS011;1321;48.690;9.022;2022-10-01T13:42:15;11.90;;;11.70;;
2622;SDS011;1321;48.690;9.022;2022-10-01T13:44:55;11.20;;;11.00;;
2622;SDS011;1321;48.690;9.022;2022-10-01T13:47:26;10.33;;;10.13;;
2622;SDS011;1321;48.690;9.022;2022-10-01T13:49:56;9.93;;;9.73;;
2622;SDS011;1321;48.690;9.022;2022-10-01T13:52:28;10.10;;;9.90;;
2622;SDS011;1321;48.690;9.022;2022-10-01T13:54:59;10.20;;;10.00;;
2622;SDS011;1321;48.690;9.022;2022-10-01T13:57:31;10.27;;;10.07;;
2622;SDS011;1321;48.690;9.022;2022-10-01T14:00:18;9.90;;;9.70;;
2622;SDS011;1321;48.690;9.022;2022-10-01T14:02:58;9.30;;;9.10;;
2622;SDS011;1321;48.690;9.022;2022-10-01T14:05:33;10.20;;;10.00;;
2622;SDS011;1321;48.690;9.022;2022-10-01T14:08:09;10.30;;;10.00;;
2622;SDS011;1321;48.690;9.022;2022-10-01T14:10:43;9.87;;;9.57;;
2622;SDS011;1321;48.690;9.022;2022-10-01T14:13:35;10.10;;;9.83;;
2622;SDS011;1321;48.690;9.022;2022-10-01T14:16:34;9.50;;;9.30;;
2622;SDS011;1321;48.690;9.022;2022-10-01T14:19:04;9.93;;;9.73;;
2622;SDS011;1321;48.690;9.022;2022-10-01T14:21:35;8.60;;;8.50;;
2622;SDS011;1321;48.690;9.022;2022-10-01T14:24:13;8.60;;;8.40;;
2622;SDS011;1321;48.690;9.022;2022-10-01T14:26:50;8.90;;;8.80;;
2622;SDS011;1321;48.690;9.022;2022-10-01T14:29:28;8.40;;;8.20;;
2622;SDS011;1321;48.690;9.022;2022-10-01T14:32:10;8.47;;;8.20;;
2622;SDS011;1321;48.690;9.022;2022-10-01T14:34:57;7.80;;;7.70;;
2622;SDS011;1321;48.690;9.022;2022-10-01T14:37:39;8.17;;;8.00;;
2622;SDS011;1321;48.690;9.022;2022-10-01T14:40:13;7.60;;;7.50;;
2622;SDS011;1321;48.690;9.022;2022-10-01T14:42:54;7.13;;;7.03;;
2622;SDS011;1321;48.690;9.022;2022-10-01T14:45:24;7.20;;;7.10;;
2622;SDS011;1321;48.690;9.022;2022-10-01T14:47:59;7.10;;;7.00;;
2622;SDS011;1321;48.690;9.022;2022-10-01T14:50:28;7.00;;;6.90;;
2622;SDS011;1321;48.690;9.022;2022-10-01T14:53:00;7.23;;;7.03;;
2622;SDS011;1321;48.690;9.022;2022-10-01T14:55:29;7.30;;;7.20;;
2622;SDS011;1321;48.690;9.022;2022-10-01T14:57:57;6.50;;;6.40;;
2622;SDS011;1321;48.690;9.022;2022-10-01T15:00:27;6.43;;;6.33;;
2622;SDS011;1321;48.690;9.022;2022-10-01T15:03:01;6.80;;;6.70;;
2622;SDS011;1321;48.690;9.022;2022-10-01T15:05:37;6.80;;;6.70;;
2622;SDS011;1321;48.690;9.022;2022-10-01T15:08:09;6.63;;;6.53;;
2622;SDS011;1321;48.690;9.022;2022-10-01T15:10:40;7.30;;;7.20;;
2622;SDS011;1321;48.690;9.022;2022-10-01T15:13:16;7.90;;;7.70;;
2622;SDS011;1321;48.690;9.022;2022-10-01T15:15:48;7.50;;;7.30;;
2622;SDS011;1321;48.690;9.022;2022-10-01T15:18:16;6.80;;;6.70;;
2622;SDS011;1321;48.690;9.022;2022-10-01T15:20:52;6.47;;;6.27;;
2622;SDS011;1321;48.690;9.022;2022-10-01T15:23:22;6.20;;;6.00;;
2622;SDS011;1321;48.690;9.022;2022-10-01T15:25:52;7.23;;;7.03;;
2622;SDS011;1321;48.690;9.022;2022-10-01T15:28:25;6.87;;;6.67;;
2622;SDS011;1321;48.690;9.022;2022-10-01T15:30:58;6.30;;;6.20;;
2622;SDS011;1321;48.690;9.022;2022-10-01T15:33:29;6.17;;;6.07;;
2622;SDS011;1321;48.690;9.022;2022-10-01T15:36:00;6.20;;;6.10;;
2622;SDS011;1321;48.690;9.022;2022-10-01T15:38:29;6.10;;;6.00;;
2622;SDS011;1321;48.690;9.022;2022-10-01T15:40:59;6.37;;;6.07;;
2622;SDS011;1321;48.690;9.022;2022-10-01T15:43:50;6.00;;;5.90;;
2622;SDS011;1321;48.690;9.022;2022-10-01T15:46:29;5.90;;;5.80;;
2622;SDS011;1321;48.690;9.022;2022-10-01T15:49:09;5.67;;;5.57;;
2622;SDS011;1321;48.690;9.022;2022-10-01T15:51:42;5.97;;;5.87;;
2622;SDS011;1321;48.690;9.022;2022-10-01T15:54:35;6.30;;;6.20;;
2622;SDS011;1321;48.690;9.022;2022-10-01T15:57:05;6.40;;;6.20;;
2622;SDS011;1321;48.690;9.022;2022-10-01T15:59:35;6.33;;;6.23;;
2622;SDS011;1321;48.690;9.022;2022-10-01T16:02:08;6.20;;;6.10;;